createdAt,value
2023-05-21T00:00:33.513Z,16.98
2023-05-21T00:03:00.642Z,19.35
2023-05-21T00:05:27.643Z,15.40
2023-05-21T00:07:55.091Z,14.27
2023-05-21T00:10:22.147Z,15.45
2023-05-21T00:12:49.052Z,21.27
2023-05-21T00:15:17.288Z,13.45
2023-05-21T00:17:44.571Z,19.52
2023-05-21T00:20:12.889Z,16.58
2023-05-21T00:22:42.171Z,18.98
2023-05-21T00:25:09.769Z,13.85
2023-05-21T00:27:36.835Z,14.30
2023-05-21T00:30:04.222Z,14.52
2023-05-21T00:32:32.484Z,14.85
2023-05-21T00:34:59.408Z,16.38
2023-05-21T00:37:26.275Z,20.73
2023-05-21T00:39:53.096Z,14.50
2023-05-21T00:42:20.099Z,17.95
2023-05-21T00:44:47.105Z,20.58
2023-05-21T00:47:14.449Z,15.43
2023-05-21T00:49:42.689Z,13.70
2023-05-21T00:52:09.952Z,15.70
2023-05-21T00:54:36.975Z,19.23
2023-05-21T00:57:04.860Z,23.23
2023-05-21T00:59:32.514Z,26.95
2023-05-21T01:02:05.570Z,21.73
2023-05-21T01:04:32.603Z,19.40
2023-05-21T01:07:01.955Z,16.98
2023-05-21T01:09:28.895Z,18.08
2023-05-21T01:11:56.331Z,25.25
2023-05-21T01:14:24.442Z,16.33
2023-05-21T01:16:53.036Z,20.48
2023-05-21T01:19:22.866Z,21.70
2023-05-21T01:21:52.949Z,26.50
2023-05-21T01:24:21.496Z,19.85
2023-05-21T01:26:48.442Z,18.55
2023-05-21T01:29:15.765Z,17.80
2023-05-21T01:31:56.653Z,17.90
2023-05-21T01:34:29.368Z,18.70
2023-05-21T01:37:08.809Z,16.20
2023-05-21T01:39:40.118Z,26.58
2023-05-21T01:42:10.790Z,23.00
2023-05-21T01:44:37.977Z,21.10
2023-05-21T01:47:06.092Z,19.92
2023-05-21T01:49:33.554Z,22.10
2023-05-21T01:52:01.514Z,21.63
2023-05-21T01:54:28.376Z,21.02
2023-05-21T01:56:56.940Z,21.20
2023-05-21T01:59:23.834Z,23.05
2023-05-21T02:01:50.746Z,21.80
2023-05-21T02:04:17.592Z,23.17
2023-05-21T02:06:44.620Z,20.88
2023-05-21T02:09:11.886Z,22.60
2023-05-21T02:11:38.979Z,27.95
2023-05-21T02:14:10.442Z,22.25
2023-05-21T02:16:38.546Z,26.58
2023-05-21T02:19:06.751Z,29.35
2023-05-21T02:21:33.658Z,25.25
2023-05-21T02:24:00.530Z,23.13
2023-05-21T02:26:27.535Z,26.20
2023-05-21T02:28:55.514Z,31.15
2023-05-21T02:31:23.795Z,24.10
2023-05-21T02:33:50.737Z,26.08
2023-05-21T02:36:18.997Z,23.42
2023-05-21T02:38:46.639Z,22.50
2023-05-21T02:41:13.925Z,28.15
2023-05-21T02:43:40.980Z,30.10
2023-05-21T02:46:07.968Z,30.42
2023-05-21T02:48:36.330Z,33.00
2023-05-21T02:51:03.373Z,30.02
2023-05-21T02:53:30.465Z,29.80
2023-05-21T02:55:57.321Z,27.98
2023-05-21T02:58:25.326Z,33.38
2023-05-21T03:00:53.249Z,34.50
2023-05-21T03:03:20.328Z,38.45
2023-05-21T03:05:48.944Z,32.63
2023-05-21T03:08:15.916Z,32.47
2023-05-21T03:10:42.854Z,29.60
2023-05-21T03:13:10.172Z,25.65
2023-05-21T03:15:38.940Z,29.98
2023-05-21T03:18:06.223Z,32.75
2023-05-21T03:20:33.571Z,31.23
2023-05-21T03:23:04.398Z,31.13
2023-05-21T03:25:31.593Z,35.25
2023-05-21T03:27:58.660Z,31.10
2023-05-21T03:30:25.562Z,38.72
2023-05-21T03:32:52.609Z,32.53
2023-05-21T03:35:19.640Z,34.28
2023-05-21T03:37:46.570Z,37.25
2023-05-21T03:40:15.519Z,35.45
2023-05-21T03:42:42.554Z,33.33
2023-05-21T03:45:10.032Z,36.28
2023-05-21T03:47:36.878Z,31.05
2023-05-21T03:50:05.867Z,35.83
2023-05-21T03:52:32.916Z,36.08
2023-05-21T03:54:59.754Z,35.60
2023-05-21T03:57:28.312Z,45.38
2023-05-21T03:59:56.026Z,49.25
2023-05-21T04:02:23.354Z,44.17
2023-05-21T04:04:51.721Z,40.78
2023-05-21T04:07:19.292Z,41.33
2023-05-21T04:09:46.865Z,35.97
2023-05-21T04:12:14.242Z,41.28
2023-05-21T04:14:42.509Z,42.13
2023-05-21T04:17:09.797Z,41.05
2023-05-21T04:19:36.856Z,39.15
2023-05-21T04:22:04.021Z,45.13
2023-05-21T04:24:31.123Z,38.25
2023-05-21T04:27:01.351Z,35.53
2023-05-21T04:29:29.911Z,41.40
2023-05-21T04:31:58.134Z,39.28
2023-05-21T04:34:25.007Z,33.85
2023-05-21T04:36:52.081Z,35.95
2023-05-21T04:39:18.920Z,43.88
2023-05-21T04:41:45.813Z,36.33
2023-05-21T04:44:14.975Z,39.72
2023-05-21T04:46:42.811Z,42.63
2023-05-21T04:49:11.645Z,36.08
2023-05-21T04:51:38.503Z,34.38
2023-05-21T04:54:05.407Z,40.35
2023-05-21T04:56:32.256Z,37.40
2023-05-21T04:58:59.347Z,35.30
2023-05-21T05:01:27.422Z,31.40
2023-05-21T05:03:55.600Z,30.40
2023-05-21T05:06:26.007Z,35.78
2023-05-21T05:08:52.934Z,30.80
2023-05-21T05:11:19.871Z,31.88
2023-05-21T05:13:46.754Z,33.63
2023-05-21T05:16:14.584Z,26.83
2023-05-21T05:18:41.673Z,28.15
2023-05-21T05:21:08.624Z,34.45
2023-05-21T05:23:36.936Z,26.20
2023-05-21T05:26:03.795Z,30.40
2023-05-21T05:28:30.633Z,28.50
2023-05-21T05:30:57.506Z,25.02
2023-05-21T05:33:24.427Z,23.23
2023-05-21T05:35:51.348Z,21.80
2023-05-21T05:38:18.223Z,19.38
2023-05-21T05:40:46.579Z,24.20
2023-05-21T05:43:13.522Z,18.02
2023-05-21T05:45:40.459Z,20.38
2023-05-21T05:48:07.345Z,23.10
2023-05-21T05:50:34.266Z,28.33
2023-05-21T05:53:01.194Z,17.63
2023-05-21T05:55:28.069Z,16.80
2023-05-21T05:57:56.301Z,18.75
2023-05-21T06:00:23.183Z,21.05
2023-05-21T06:02:50.154Z,17.90
2023-05-21T06:05:17.238Z,23.60
2023-05-21T06:07:44.311Z,16.88
2023-05-21T06:10:11.179Z,16.15
2023-05-21T06:12:38.116Z,26.30
2023-05-21T06:15:07.613Z,34.88
2023-05-21T06:17:34.618Z,19.80
2023-05-21T06:20:01.574Z,15.50
2023-05-21T06:22:28.373Z,17.88
2023-05-21T06:24:55.264Z,19.73
2023-05-21T06:27:22.207Z,14.48
2023-05-21T06:29:49.084Z,20.83
2023-05-21T06:32:17.395Z,14.07
2023-05-21T06:34:44.369Z,18.48
2023-05-21T06:37:11.315Z,14.70
2023-05-21T06:39:38.295Z,13.27
2023-05-21T06:42:05.749Z,14.35
2023-05-21T06:44:32.672Z,19.27
2023-05-21T06:46:59.574Z,23.10
2023-05-21T06:49:27.935Z,10.80
2023-05-21T06:51:54.809Z,13.35
2023-05-21T06:54:21.784Z,13.85
2023-05-21T06:56:48.922Z,11.30
2023-05-21T06:59:16.187Z,11.15
2023-05-21T07:01:44.205Z,14.18
2023-05-21T07:04:11.400Z,14.38
2023-05-21T07:06:40.315Z,11.98
2023-05-21T07:09:07.338Z,38.13
2023-05-21T07:11:34.226Z,15.25
2023-05-21T07:14:02.160Z,15.10
2023-05-21T07:16:29.030Z,14.73
2023-05-21T07:18:56.103Z,16.17
2023-05-21T07:21:23.113Z,15.98
2023-05-21T07:23:51.577Z,12.77
2023-05-21T07:26:18.611Z,11.48
2023-05-21T07:28:45.574Z,13.75
2023-05-21T07:31:12.799Z,15.40
2023-05-21T07:33:40.108Z,13.15
2023-05-21T07:36:07.353Z,10.73
2023-05-21T07:38:34.663Z,12.30
2023-05-21T07:41:03.004Z,8.65
2023-05-21T07:43:31.747Z,14.18
2023-05-21T07:45:58.698Z,13.02
2023-05-21T07:48:27.009Z,13.55
2023-05-21T07:50:54.013Z,10.63
2023-05-21T07:53:20.936Z,12.07
2023-05-21T07:55:48.208Z,11.35
2023-05-21T07:58:18.963Z,10.43
2023-05-21T08:00:47.585Z,14.25
2023-05-21T08:03:16.505Z,11.00
2023-05-21T08:05:44.936Z,11.27
2023-05-21T08:08:12.908Z,12.35
2023-05-21T08:10:40.011Z,12.00
2023-05-21T08:13:06.894Z,11.25
2023-05-21T08:15:35.344Z,7.25
2023-05-21T08:18:02.515Z,10.13
2023-05-21T08:20:31.048Z,11.98
2023-05-21T08:22:58.133Z,12.07
2023-05-21T08:25:25.043Z,11.00
2023-05-21T08:27:52.525Z,9.63
2023-05-21T08:30:19.878Z,8.63
2023-05-21T08:32:49.063Z,14.00
2023-05-21T08:35:16.753Z,7.80
2023-05-21T08:37:43.685Z,16.27
2023-05-21T08:40:12.413Z,8.35
2023-05-21T08:42:43.942Z,9.07
2023-05-21T08:45:13.256Z,15.13
2023-05-21T08:47:43.627Z,9.18
2023-05-21T08:50:13.488Z,8.15
2023-05-21T08:52:40.569Z,13.38
2023-05-21T08:55:08.777Z,7.63
2023-05-21T08:57:36.839Z,11.00
2023-05-21T09:00:05.557Z,9.35
2023-05-21T09:02:34.376Z,10.55
2023-05-21T09:05:03.420Z,19.08
2023-05-21T09:07:34.478Z,8.20
2023-05-21T09:10:05.252Z,9.38
2023-05-21T09:12:32.921Z,10.48
2023-05-21T09:15:00.544Z,9.80
2023-05-21T09:17:27.763Z,8.02
2023-05-21T09:20:16.265Z,8.88
2023-05-21T09:22:46.116Z,8.02
2023-05-21T09:25:13.985Z,8.25
2023-05-21T09:27:41.110Z,11.38
2023-05-21T09:30:11.336Z,11.85
2023-05-21T09:32:38.646Z,12.57
2023-05-21T09:35:10.249Z,10.38
2023-05-21T09:37:40.993Z,11.65
2023-05-21T09:40:15.342Z,10.15
2023-05-21T09:42:46.267Z,11.25
2023-05-21T09:45:17.457Z,11.95
2023-05-21T09:47:45.565Z,14.85
2023-05-21T09:50:13.259Z,10.27
2023-05-21T09:52:42.094Z,11.70
2023-05-21T09:55:13.494Z,12.70
2023-05-21T09:57:41.641Z,23.63
2023-05-21T10:00:10.766Z,12.82
2023-05-21T10:02:44.658Z,11.02
2023-05-21T10:05:13.770Z,11.98
2023-05-21T10:07:42.503Z,14.07
2023-05-21T10:10:16.977Z,12.05
2023-05-21T10:12:46.060Z,15.98
2023-05-21T10:15:22.594Z,7.93
2023-05-21T10:17:50.000Z,8.45
2023-05-21T10:20:17.489Z,12.63
2023-05-21T10:22:44.914Z,14.00
2023-05-21T10:25:15.781Z,10.32
2023-05-21T10:27:43.190Z,18.60
2023-05-21T10:30:10.909Z,12.82
2023-05-21T10:32:42.077Z,9.35
2023-05-21T10:35:10.121Z,11.25
2023-05-21T10:37:37.063Z,10.43
2023-05-21T10:40:04.638Z,15.15
2023-05-21T10:42:59.283Z,15.95
2023-05-21T10:45:40.244Z,13.90
2023-05-21T10:48:25.066Z,11.82
2023-05-21T10:51:13.882Z,14.30
2023-05-21T10:54:01.449Z,14.57
2023-05-21T10:56:33.006Z,16.10
2023-05-21T10:59:35.016Z,15.85
2023-05-21T11:02:03.820Z,19.75
2023-05-21T11:04:30.851Z,28.15
2023-05-21T11:06:59.280Z,21.35
2023-05-21T11:09:27.027Z,12.98
2023-05-21T11:11:58.293Z,11.13
2023-05-21T11:14:39.661Z,14.65
2023-05-21T11:17:15.020Z,22.35
2023-05-21T11:19:43.530Z,18.45
2023-05-21T11:22:24.730Z,18.00
2023-05-21T11:24:52.545Z,15.52
2023-05-21T11:27:34.827Z,14.05
2023-05-21T11:30:06.705Z,29.42
2023-05-21T11:32:37.176Z,16.63
2023-05-21T11:35:04.563Z,20.10
2023-05-21T11:37:34.575Z,17.85
2023-05-21T11:40:22.854Z,14.05
2023-05-21T11:42:52.832Z,23.30
2023-05-21T11:45:22.189Z,22.27
2023-05-21T11:47:49.886Z,32.63
2023-05-21T11:50:17.585Z,19.20
2023-05-21T11:52:44.846Z,13.95
2023-05-21T11:55:12.067Z,15.52
2023-05-21T11:57:42.194Z,17.67
2023-05-21T12:00:15.337Z,14.38
2023-05-21T12:02:50.663Z,20.52
2023-05-21T12:05:17.595Z,19.27
2023-05-21T12:07:48.693Z,23.25
2023-05-21T12:10:15.852Z,16.95
2023-05-21T12:12:53.793Z,13.23
2023-05-21T12:15:24.348Z,14.25
2023-05-21T12:17:53.268Z,11.40
2023-05-21T12:20:20.900Z,17.90
2023-05-21T12:22:48.968Z,19.83
2023-05-21T12:25:19.861Z,12.57
2023-05-21T12:27:46.920Z,17.63
2023-05-21T12:30:14.244Z,12.02
2023-05-21T12:32:44.188Z,16.40
2023-05-21T12:35:22.957Z,15.82
2023-05-21T12:37:51.066Z,14.43
2023-05-21T12:40:18.812Z,13.80
2023-05-21T12:42:45.789Z,14.32
2023-05-21T12:45:13.535Z,15.35
2023-05-21T12:47:40.644Z,17.52
2023-05-21T12:50:13.978Z,16.55
2023-05-21T12:55:13.106Z,16.08
2023-05-21T12:57:39.988Z,13.38
2023-05-21T13:00:08.038Z,17.70
2023-05-21T13:02:38.826Z,15.20
2023-05-21T13:05:07.373Z,12.18
2023-05-21T13:07:35.883Z,14.57
2023-05-21T13:10:05.534Z,15.20
2023-05-21T13:12:33.530Z,14.57
2023-05-21T13:15:01.614Z,19.92
2023-05-21T13:17:29.140Z,14.55
2023-05-21T13:20:07.769Z,16.98
2023-05-21T13:22:36.081Z,18.95
2023-05-21T13:25:05.435Z,11.50
2023-05-21T13:27:32.461Z,22.95
2023-05-21T13:29:59.461Z,19.55
2023-05-21T13:32:26.505Z,15.98
2023-05-21T13:34:53.453Z,19.48
2023-05-21T13:37:20.779Z,17.50
2023-05-21T13:39:47.904Z,15.00
2023-05-21T13:42:16.287Z,15.65
2023-05-21T13:44:43.154Z,17.88
2023-05-21T13:47:10.686Z,11.90
2023-05-21T13:49:38.622Z,12.32
2023-05-21T13:52:06.563Z,17.80
2023-05-21T13:54:33.470Z,18.02
2023-05-21T13:57:00.555Z,15.13
2023-05-21T13:59:30.744Z,11.25
2023-05-21T14:01:59.657Z,15.02
2023-05-21T14:04:26.618Z,14.50
2023-05-21T14:06:53.775Z,15.43
2023-05-21T14:09:21.584Z,15.63
2023-05-21T14:11:48.553Z,12.75
2023-05-21T14:14:19.028Z,10.77
2023-05-21T14:16:47.726Z,15.35
2023-05-21T14:19:14.905Z,12.15
2023-05-21T14:21:41.788Z,21.92
2023-05-21T14:24:08.667Z,14.95
2023-05-21T14:26:40.069Z,14.63
2023-05-21T14:29:07.287Z,17.83
2023-05-21T14:31:34.319Z,15.02
2023-05-21T14:34:07.880Z,16.80
2023-05-21T14:39:01.661Z,19.65
2023-05-21T14:41:29.200Z,13.55
2023-05-21T14:43:56.235Z,14.63
2023-05-21T14:46:23.337Z,11.32
2023-05-21T14:48:50.324Z,15.30
2023-05-21T14:51:19.315Z,14.35
2023-05-21T14:53:46.213Z,17.48
2023-05-21T14:56:13.095Z,16.48
2023-05-21T14:58:39.979Z,9.68
2023-05-21T15:01:07.113Z,17.85
2023-05-21T15:03:34.197Z,14.38
2023-05-21T15:06:01.098Z,17.83
2023-05-21T15:08:29.418Z,20.63
2023-05-21T15:10:57.131Z,12.45
2023-05-21T15:13:23.982Z,19.90
2023-05-21T15:15:51.259Z,14.98
2023-05-21T15:18:18.209Z,16.85
2023-05-21T15:20:45.157Z,13.30
2023-05-21T15:23:17.168Z,21.83
2023-05-21T15:25:46.169Z,12.68
2023-05-21T15:28:13.181Z,16.98
2023-05-21T15:30:40.381Z,22.15
2023-05-21T15:33:07.250Z,23.58
2023-05-21T15:35:35.457Z,9.52
2023-05-21T15:38:02.891Z,19.20
2023-05-21T15:40:29.872Z,10.77
2023-05-21T15:42:58.326Z,16.33
2023-05-21T15:45:25.436Z,23.90
2023-05-21T15:47:53.079Z,20.63
2023-05-21T15:50:19.967Z,13.65
2023-05-21T15:52:46.844Z,16.20
2023-05-21T15:55:14.326Z,13.90
2023-05-21T15:57:41.270Z,15.05
2023-05-21T16:00:11.215Z,21.33
2023-05-21T16:02:38.178Z,13.82
2023-05-21T16:05:05.581Z,11.45
2023-05-21T16:07:32.402Z,22.38
2023-05-21T16:09:59.240Z,13.50
2023-05-21T16:12:26.472Z,17.20
2023-05-21T16:14:53.386Z,16.92
2023-05-21T16:17:21.684Z,20.58
2023-05-21T16:19:48.571Z,10.85
2023-05-21T16:22:15.610Z,15.05
2023-05-21T16:24:42.630Z,19.00
2023-05-21T16:27:09.569Z,16.15
2023-05-21T16:29:38.166Z,14.77
2023-05-21T16:32:06.694Z,20.27
2023-05-21T16:34:36.364Z,12.73
2023-05-21T16:37:03.420Z,17.25
2023-05-21T16:39:30.336Z,21.60
2023-05-21T16:41:59.748Z,17.38
2023-05-21T16:44:27.263Z,14.77
2023-05-21T16:46:54.349Z,15.38
2023-05-21T16:49:21.377Z,18.92
2023-05-21T16:51:49.715Z,23.45
2023-05-21T16:54:16.757Z,15.10
2023-05-21T16:56:43.635Z,17.38
2023-05-21T16:59:10.637Z,14.85
2023-05-21T17:01:37.677Z,11.15
2023-05-21T17:04:04.926Z,34.28
2023-05-21T17:06:31.905Z,16.65
2023-05-21T17:09:00.179Z,16.08
2023-05-21T17:11:27.137Z,11.05
2023-05-21T17:13:54.020Z,16.42
2023-05-21T17:16:21.000Z,14.77
2023-05-21T17:18:47.960Z,12.18
2023-05-21T17:21:14.823Z,12.57
2023-05-21T17:23:43.002Z,13.70
2023-05-21T17:26:11.386Z,23.42
2023-05-21T17:28:38.366Z,12.57
2023-05-21T17:31:08.615Z,28.65
2023-05-21T17:33:36.446Z,20.25
2023-05-21T17:36:03.666Z,9.32
2023-05-21T17:38:30.553Z,15.00
2023-05-21T17:40:58.913Z,10.75
2023-05-21T17:43:27.790Z,11.63
2023-05-21T17:45:54.787Z,24.08
2023-05-21T17:48:21.989Z,19.63
2023-05-21T17:50:48.943Z,18.38
2023-05-21T17:53:16.485Z,13.35
2023-05-21T17:55:43.512Z,18.50
2023-05-21T17:58:10.512Z,15.20
2023-05-21T18:00:38.773Z,14.52
2023-05-21T18:03:05.826Z,15.98
2023-05-21T18:05:32.789Z,22.02
2023-05-21T18:08:01.196Z,12.10
2023-05-21T18:10:28.312Z,11.68
2023-05-21T18:12:55.416Z,12.35
2023-05-21T18:15:22.388Z,13.60
2023-05-21T18:17:50.684Z,14.10
2023-05-21T18:20:17.705Z,17.02
2023-05-21T18:22:44.880Z,12.05
2023-05-21T18:25:11.897Z,17.15
2023-05-21T18:27:38.789Z,19.30
2023-05-21T18:30:07.080Z,14.95
2023-05-21T18:32:34.599Z,15.50
2023-05-21T18:35:03.117Z,9.52
2023-05-21T18:37:29.942Z,12.98
2023-05-21T18:39:56.874Z,21.02
2023-05-21T18:42:23.812Z,13.05
2023-05-21T18:44:51.504Z,18.23
2023-05-21T18:47:18.515Z,20.88
2023-05-21T18:49:45.453Z,12.75
2023-05-21T18:52:14.131Z,16.98
2023-05-21T18:54:41.027Z,12.95
2023-05-21T18:57:07.867Z,16.15
2023-05-21T18:59:34.729Z,20.38
2023-05-21T19:02:01.675Z,11.60
2023-05-21T19:04:28.833Z,20.25
2023-05-21T19:06:55.968Z,18.15
2023-05-21T19:09:24.536Z,19.70
2023-05-21T19:11:51.747Z,28.33
2023-05-21T19:14:20.318Z,14.10
2023-05-21T19:16:47.293Z,18.75
2023-05-21T19:19:14.265Z,13.20
2023-05-21T19:21:41.414Z,18.15
2023-05-21T19:24:08.439Z,23.90
2023-05-21T19:26:36.905Z,15.95
2023-05-21T19:29:03.871Z,16.95
2023-05-21T19:31:30.900Z,11.55
2023-05-21T19:33:57.810Z,14.90
2023-05-21T19:36:24.769Z,11.60
2023-05-21T19:38:51.794Z,16.02
2023-05-21T19:41:19.945Z,21.05
2023-05-21T19:43:48.278Z,17.38
2023-05-21T19:46:19.117Z,13.32
2023-05-21T19:48:47.121Z,20.15
2023-05-21T19:51:14.115Z,21.85
2023-05-21T19:53:40.966Z,15.57
2023-05-21T19:56:08.065Z,13.27
2023-05-21T19:58:34.963Z,15.38
2023-05-21T20:01:03.708Z,14.70
2023-05-21T20:03:35.862Z,15.25
2023-05-21T20:06:02.985Z,14.68
2023-05-21T20:08:30.156Z,14.00
2023-05-21T20:10:57.269Z,15.95
2023-05-21T20:13:24.491Z,21.88
2023-05-21T20:15:51.621Z,14.65
2023-05-21T20:18:22.721Z,26.92
2023-05-21T20:20:49.642Z,20.38
2023-05-21T20:23:16.672Z,18.73
2023-05-21T20:25:43.726Z,14.10
2023-05-21T20:28:10.791Z,14.85
2023-05-21T20:30:54.066Z,16.85
2023-05-21T20:33:22.459Z,18.73
2023-05-21T20:35:49.523Z,18.58
2023-05-21T20:38:17.342Z,19.55
2023-05-21T20:40:44.621Z,23.80
2023-05-21T20:43:13.758Z,18.17
2023-05-21T20:45:41.879Z,19.80
2023-05-21T20:48:09.965Z,24.23
2023-05-21T20:50:38.913Z,24.83
2023-05-21T20:53:06.384Z,18.83
2023-05-21T20:55:34.872Z,18.70
2023-05-21T20:58:02.618Z,32.55
2023-05-21T21:00:29.768Z,24.50
2023-05-21T21:02:58.365Z,16.05
2023-05-21T21:05:25.462Z,26.52
2023-05-21T21:07:55.884Z,26.35
2023-05-21T21:10:23.184Z,22.73
2023-05-21T21:12:50.079Z,35.15
2023-05-21T21:15:17.149Z,21.98
2023-05-21T21:17:44.338Z,19.75
2023-05-21T21:20:13.759Z,25.98
2023-05-21T21:22:41.291Z,24.48
2023-05-21T21:25:10.405Z,18.20
2023-05-21T21:27:37.430Z,21.08
2023-05-21T21:30:04.976Z,28.42
2023-05-21T21:32:31.951Z,35.38
2023-05-21T21:34:58.920Z,22.27
2023-05-21T21:37:25.874Z,16.35
2023-05-21T21:39:53.577Z,25.20
2023-05-21T21:42:21.919Z,30.15
2023-05-21T21:44:48.885Z,19.75
2023-05-21T21:47:15.766Z,30.50
2023-05-21T21:49:42.747Z,29.17
2023-05-21T21:52:10.858Z,23.90
2023-05-21T21:54:37.710Z,30.08
2023-05-21T21:57:04.883Z,25.70
2023-05-21T21:59:33.931Z,30.38
2023-05-21T22:02:01.141Z,25.40
2023-05-21T22:04:28.308Z,21.17
2023-05-21T22:06:55.218Z,31.65
2023-05-21T22:09:22.705Z,24.77
2023-05-21T22:11:49.681Z,25.83
2023-05-21T22:14:18.275Z,28.55
2023-05-21T22:16:47.661Z,30.40
2023-05-21T22:19:16.152Z,24.98
2023-05-21T22:21:43.314Z,31.65
2023-05-21T22:24:20.639Z,34.00
2023-05-21T22:26:57.222Z,25.33
2023-05-21T22:29:24.090Z,30.58
2023-05-21T22:31:52.578Z,23.95
2023-05-21T22:34:19.428Z,35.92
2023-05-21T22:36:47.004Z,27.33
2023-05-21T22:39:14.184Z,30.02
2023-05-21T22:41:41.205Z,25.95
2023-05-21T22:44:08.101Z,28.92
2023-05-21T22:46:35.587Z,34.70
2023-05-21T22:49:03.913Z,27.45
2023-05-21T22:51:34.750Z,33.65
2023-05-21T22:54:02.020Z,36.47
2023-05-21T22:56:29.022Z,27.45
2023-05-21T22:58:56.303Z,31.42
2023-05-21T23:01:23.590Z,26.88
2023-05-21T23:03:51.460Z,39.13
2023-05-21T23:06:19.739Z,37.35
2023-05-21T23:08:46.796Z,29.80
2023-05-21T23:11:13.624Z,36.83
2023-05-21T23:13:40.494Z,39.30
2023-05-21T23:16:07.523Z,32.53
2023-05-21T23:18:35.128Z,34.58
2023-05-21T23:21:02.432Z,29.58
2023-05-21T23:23:31.055Z,32.92
2023-05-21T23:25:59.047Z,43.38
2023-05-21T23:28:26.587Z,34.55
2023-05-21T23:30:53.820Z,41.42
2023-05-21T23:33:20.837Z,36.42
2023-05-21T23:35:47.763Z,28.15
2023-05-21T23:38:14.633Z,40.97
2023-05-21T23:40:43.471Z,37.08
2023-05-21T23:43:10.391Z,44.72
2023-05-21T23:45:37.355Z,41.67
2023-05-21T23:48:04.570Z,37.38
2023-05-21T23:50:31.436Z,45.42
2023-05-21T23:52:58.722Z,37.47
2023-05-21T23:55:25.648Z,41.13
2023-05-21T23:57:53.949Z,45.90
